createdAt,value
2019-03-06T00:01:40.484Z,96847.66
2019-03-06T00:04:10.379Z,96847.66
2019-03-06T00:06:41.152Z,96842.08
2019-03-06T00:09:16.084Z,96847.38
2019-03-06T00:11:56.083Z,96839.21
2019-03-06T00:14:25.991Z,96829.03
2019-03-06T00:16:55.916Z,96829.03
2019-03-06T00:19:25.924Z,96827.50
2019-03-06T00:21:55.539Z,96827.50
2019-03-06T00:24:25.312Z,96825.75
2019-03-06T00:26:55.621Z,96812.20
2019-03-06T00:29:26.334Z,96809.08
2019-03-06T00:31:56.381Z,96809.08
2019-03-06T00:34:26.280Z,96805.80
2019-03-06T00:36:56.662Z,96801.23
2019-03-06T00:39:29.080Z,96794.59
2019-03-06T00:41:58.733Z,96794.59
2019-03-06T00:44:28.880Z,96799.53
2019-03-06T00:46:58.619Z,96807.92
2019-03-06T00:49:28.335Z,96801.81
2019-03-06T00:51:58.044Z,96804.09
2019-03-06T00:54:27.683Z,96798.78
2019-03-06T00:56:57.832Z,96788.11
2019-03-06T00:59:27.586Z,96788.11
2019-03-06T01:01:57.454Z,96790.98
2019-03-06T01:04:27.188Z,96786.04
2019-03-06T01:06:57.218Z,96786.04
2019-03-06T01:09:26.770Z,96785.56
2019-03-06T01:11:56.708Z,96785.27
2019-03-06T01:14:27.896Z,96775.06
2019-03-06T01:16:57.653Z,96775.02
2019-03-06T01:19:27.379Z,96775.02
2019-03-06T01:21:57.817Z,96780.48
2019-03-06T01:24:27.595Z,96777.48
2019-03-06T01:26:57.257Z,96777.48
2019-03-06T01:29:27.046Z,96782.54
2019-03-06T01:31:58.301Z,96778.70
2019-03-06T01:34:46.153Z,96776.97
2019-03-06T01:37:24.985Z,96775.91
2019-03-06T01:40:19.464Z,96765.03
2019-03-06T01:42:53.902Z,96762.64
2019-03-06T01:45:23.788Z,96762.86
2019-03-06T01:47:53.517Z,96758.77
2019-03-06T01:50:23.260Z,96753.42
2019-03-06T01:52:53.509Z,96750.21
2019-03-06T01:55:23.527Z,96745.86
2019-03-06T01:57:53.206Z,96744.31
2019-03-06T02:00:22.949Z,96748.56
2019-03-06T02:02:52.743Z,96737.55
2019-03-06T02:05:22.531Z,96737.55
2019-03-06T02:07:52.284Z,96731.55
2019-03-06T02:10:22.619Z,96722.34
2019-03-06T02:12:52.812Z,96725.25
2019-03-06T02:15:22.718Z,96725.25
2019-03-06T02:17:52.843Z,96716.92
2019-03-06T02:20:22.813Z,96716.66
2019-03-06T02:22:52.866Z,96716.30
2019-03-06T02:25:22.647Z,96700.13
2019-03-06T02:27:52.592Z,96706.67
2019-03-06T02:30:22.649Z,96706.67
2019-03-06T02:32:52.359Z,96712.59
2019-03-06T02:35:22.049Z,96703.90
2019-03-06T02:37:51.877Z,96698.34
2019-03-06T02:40:21.829Z,96696.05
2019-03-06T02:42:51.595Z,96696.05
2019-03-06T02:45:21.751Z,96678.31
2019-03-06T02:47:51.333Z,96678.31
2019-03-06T02:50:21.086Z,96669.86
2019-03-06T02:52:51.020Z,96668.06
2019-03-06T02:55:20.845Z,96662.87
2019-03-06T02:57:59.408Z,96667.33
2019-03-06T03:00:51.202Z,96659.96
2019-03-06T03:03:30.753Z,96659.96
2019-03-06T03:06:03.783Z,96659.15
2019-03-06T03:08:33.770Z,96659.15
2019-03-06T03:11:03.737Z,96645.13
2019-03-06T03:13:33.873Z,96642.34
2019-03-06T03:16:03.703Z,96642.34
2019-03-06T03:18:33.982Z,96642.22
2019-03-06T03:21:03.788Z,96640.87
2019-03-06T03:23:33.629Z,96627.59
2019-03-06T03:26:03.343Z,96626.51
2019-03-06T03:28:33.087Z,96626.87
2019-03-06T03:31:02.868Z,96626.87
2019-03-06T03:33:32.763Z,96625.06
2019-03-06T03:36:03.127Z,96613.34
2019-03-06T03:38:33.047Z,96618.43
2019-03-06T03:41:03.031Z,96616.48
2019-03-06T03:43:34.475Z,96616.59
2019-03-06T03:46:04.258Z,96611.19
2019-03-06T03:48:34.087Z,96611.19
2019-03-06T03:51:04.382Z,96608.86
2019-03-06T03:53:34.400Z,96608.86
2019-03-06T03:56:04.579Z,96599.92
2019-03-06T03:58:34.377Z,96598.80
2019-03-06T04:01:04.164Z,96598.80
2019-03-06T04:03:34.541Z,96590.47
2019-03-06T04:06:04.670Z,96590.47
2019-03-06T04:08:34.864Z,96592.64
2019-03-06T04:11:04.779Z,96595.34
2019-03-06T04:13:34.874Z,96592.08
2019-03-06T04:16:05.274Z,96592.08
2019-03-06T04:18:35.211Z,96582.30
2019-03-06T04:21:05.234Z,96573.20
2019-03-06T04:23:35.123Z,96560.11
2019-03-06T04:26:04.690Z,96551.42
2019-03-06T04:28:34.897Z,96554.56
2019-03-06T04:31:04.595Z,96545.05
2019-03-06T04:33:35.773Z,96554.59
2019-03-06T04:36:05.566Z,96554.59
2019-03-06T04:38:35.550Z,96556.65
2019-03-06T04:41:05.377Z,96567.28
2019-03-06T04:43:35.306Z,96558.67
2019-03-06T04:46:05.091Z,96556.93
2019-03-06T04:48:35.282Z,96561.20
2019-03-06T04:51:05.110Z,96568.97
2019-03-06T04:53:35.048Z,96568.97
2019-03-06T04:56:05.096Z,96557.78
2019-03-06T04:58:34.925Z,96558.83
2019-03-06T05:01:05.176Z,96557.69
2019-03-06T05:03:35.071Z,96546.66
2019-03-06T05:06:04.899Z,96543.92
2019-03-06T05:08:35.423Z,96540.02
2019-03-06T05:11:05.427Z,96525.56
2019-03-06T05:13:35.202Z,96525.17
2019-03-06T05:16:05.083Z,96525.17
2019-03-06T05:18:42.119Z,96522.79
2019-03-06T05:21:12.135Z,96516.91
2019-03-06T05:23:42.363Z,96517.27
2019-03-06T05:26:12.198Z,96517.27
2019-03-06T05:28:42.254Z,96500.01
2019-03-06T05:31:12.079Z,96501.73
2019-03-06T05:33:41.958Z,96501.73
2019-03-06T05:36:37.720Z,96505.34
2019-03-06T05:39:09.027Z,96509.58
2019-03-06T05:41:38.776Z,96506.22
2019-03-06T05:44:08.724Z,96499.47
2019-03-06T05:46:38.744Z,96494.48
2019-03-06T05:49:09.304Z,96494.48
2019-03-06T05:51:39.023Z,96489.17
2019-03-06T05:54:33.368Z,96496.88
2019-03-06T05:57:36.883Z,96496.88
2019-03-06T06:02:46.219Z,96468.48
2019-03-06T06:05:16.118Z,96463.20
2019-03-06T06:07:46.128Z,96473.16
2019-03-06T06:10:18.215Z,96473.16
2019-03-06T06:12:48.029Z,96459.09
2019-03-06T06:15:17.800Z,96448.22
2019-03-06T06:17:47.712Z,96448.22
2019-03-06T06:20:17.581Z,96446.17
2019-03-06T06:23:09.137Z,96436.91
2019-03-06T06:25:41.312Z,96433.90
2019-03-06T06:28:14.391Z,96433.90
2019-03-06T06:30:47.929Z,96428.23
2019-03-06T06:34:05.717Z,96428.10
2019-03-06T06:36:35.458Z,96429.52
2019-03-06T06:39:06.917Z,96424.44
2019-03-06T06:41:39.099Z,96424.40
2019-03-06T06:44:09.021Z,96421.38
2019-03-06T06:46:38.916Z,96421.38
2019-03-06T06:49:08.535Z,96414.61
2019-03-06T06:51:57.958Z,96408.42
2019-03-06T06:55:06.119Z,96394.16
2019-03-06T06:58:12.872Z,96396.02
2019-03-06T07:01:31.341Z,96383.98
2019-03-06T07:04:56.610Z,96387.84
2019-03-06T07:07:38.854Z,96390.45
2019-03-06T07:10:16.759Z,96377.03
2019-03-06T07:13:00.181Z,96372.20
2019-03-06T07:15:42.627Z,96368.55
2019-03-06T07:18:26.887Z,96368.55
2019-03-06T07:21:08.148Z,96354.61
2019-03-06T07:24:00.046Z,96356.66
2019-03-06T07:26:56.732Z,96340.97
2019-03-06T07:29:46.567Z,96338.31
2019-03-06T07:32:44.032Z,96332.54
2019-03-06T07:36:12.559Z,96332.80
2019-03-06T07:38:43.458Z,96331.05
2019-03-06T07:41:35.585Z,96331.05
2019-03-06T07:44:29.793Z,96318.42
2019-03-06T07:47:12.114Z,96318.22
2019-03-06T07:49:54.790Z,96313.48
2019-03-06T07:52:43.376Z,96313.48
2019-03-06T07:55:41.141Z,96321.17
2019-03-06T07:58:46.620Z,96314.61
2019-03-06T08:01:17.232Z,96310.42
2019-03-06T08:04:11.548Z,96316.99
2019-03-06T08:06:43.711Z,96314.47
2019-03-06T08:09:18.578Z,96314.47
2019-03-06T08:12:10.133Z,96298.50
2019-03-06T08:14:57.980Z,96313.09
2019-03-06T08:17:52.642Z,96303.15
2019-03-06T08:20:48.694Z,96302.14
2019-03-06T08:23:29.892Z,96300.44
2019-03-06T08:25:59.858Z,96292.80
2019-03-06T08:28:29.669Z,96295.45
2019-03-06T08:31:10.934Z,96284.88
2019-03-06T08:33:40.441Z,96277.86
2019-03-06T08:36:10.889Z,96277.62
2019-03-06T08:38:40.898Z,96277.75
2019-03-06T08:41:10.559Z,96277.04
2019-03-06T08:43:40.903Z,96266.92
2019-03-06T08:46:29.410Z,96272.67
2019-03-06T08:49:31.436Z,96263.27
2019-03-06T08:52:22.798Z,96263.27
2019-03-06T08:55:26.603Z,96261.14
2019-03-06T08:58:15.635Z,96250.32
2019-03-06T09:01:09.976Z,96250.32
2019-03-06T09:04:06.080Z,96251.83
2019-03-06T09:06:45.916Z,96251.83
2019-03-06T09:09:34.951Z,96253.91
2019-03-06T09:12:16.658Z,96253.91
2019-03-06T09:15:08.216Z,96240.17
2019-03-06T09:18:09.094Z,96248.81
2019-03-06T09:20:56.364Z,96241.53
2019-03-06T09:23:48.089Z,96226.56
2019-03-06T09:26:37.066Z,96221.10
2019-03-06T09:29:35.740Z,96229.88
2019-03-06T09:32:26.595Z,96229.88
2019-03-06T09:35:13.750Z,96227.16
2019-03-06T09:38:10.990Z,96205.64
2019-03-06T09:40:45.731Z,96208.87
2019-03-06T09:43:30.356Z,96204.23
2019-03-06T09:46:12.633Z,96197.02
2019-03-06T09:48:48.041Z,96180.91
2019-03-06T09:51:29.901Z,96167.47
2019-03-06T09:54:19.751Z,96167.02
2019-03-06T09:57:23.967Z,96167.02
2019-03-06T10:00:01.294Z,96165.81
2019-03-06T10:02:54.112Z,96150.90
2019-03-06T10:05:30.617Z,96143.30
2019-03-06T10:08:13.650Z,96143.30
2019-03-06T10:10:57.447Z,96122.22
2019-03-06T10:13:41.744Z,96118.73
2019-03-06T10:16:26.239Z,96123.77
2019-03-06T10:19:08.139Z,96123.77
2019-03-06T10:21:40.281Z,96117.00
2019-03-06T10:24:11.765Z,96117.00
2019-03-06T10:26:41.540Z,96114.22
2019-03-06T10:29:11.320Z,96114.22
2019-03-06T10:31:41.753Z,96099.33
2019-03-06T10:34:11.312Z,96126.94
2019-03-06T10:36:41.137Z,96130.83
2019-03-06T10:39:11.537Z,96130.83
2019-03-06T10:41:41.600Z,96128.31
2019-03-06T10:44:11.463Z,96120.28
2019-03-06T10:46:41.678Z,96120.28
2019-03-06T10:49:11.360Z,96102.41
2019-03-06T10:51:41.655Z,96103.05
2019-03-06T10:54:12.085Z,96097.02
2019-03-06T10:56:42.419Z,96081.98
2019-03-06T10:59:12.537Z,96081.98
2019-03-06T11:01:42.808Z,96092.17
2019-03-06T11:04:31.761Z,96092.17
2019-03-06T11:07:01.742Z,96083.09
2019-03-06T11:09:31.798Z,96081.63
2019-03-06T11:12:01.515Z,96081.63
2019-03-06T11:14:31.916Z,96076.25
2019-03-06T11:17:02.329Z,96066.02
2019-03-06T11:19:33.139Z,96055.77
2019-03-06T11:22:04.705Z,96043.05
2019-03-06T11:24:34.523Z,96053.06
2019-03-06T11:27:04.607Z,96053.06
2019-03-06T11:29:34.484Z,96053.67
2019-03-06T11:32:06.632Z,96060.87
2019-03-06T11:34:36.726Z,96052.87
2019-03-06T11:37:07.263Z,96048.72
2019-03-06T11:39:40.156Z,96048.72
2019-03-06T11:42:15.812Z,96044.86
2019-03-06T11:44:46.154Z,96027.05
2019-03-06T11:47:15.962Z,96027.05
2019-03-06T11:49:47.384Z,96006.41
2019-03-06T11:52:19.296Z,96006.41
2019-03-06T11:54:49.125Z,96005.75
2019-03-06T11:57:19.483Z,95981.92
2019-03-06T11:59:49.358Z,96002.30
2019-03-06T12:02:19.654Z,95994.17
2019-03-06T12:04:49.730Z,95990.45
2019-03-06T12:07:19.638Z,95990.45
2019-03-06T12:09:49.319Z,95995.71
2019-03-06T12:12:19.767Z,95992.08
2019-03-06T12:14:49.529Z,95970.47
2019-03-06T12:17:19.665Z,95970.47
2019-03-06T12:19:49.323Z,95965.83
2019-03-06T12:22:20.761Z,95954.58
2019-03-06T12:24:54.083Z,95949.80
2019-03-06T12:27:24.502Z,95944.83
2019-03-06T12:29:58.273Z,95944.83
2019-03-06T12:32:31.442Z,95931.84
2019-03-06T12:35:01.469Z,95934.98
2019-03-06T12:37:33.342Z,95924.03
2019-03-06T12:40:12.104Z,95931.74
2019-03-06T12:42:39.495Z,95913.03
2019-03-06T12:45:12.778Z,95907.37
2019-03-06T12:47:42.724Z,95905.25
2019-03-06T12:50:15.662Z,95905.25
2019-03-06T12:52:45.535Z,95901.81
2019-03-06T12:55:15.356Z,95901.81
2019-03-06T12:57:48.438Z,95893.37
2019-03-06T13:00:28.046Z,95893.37
2019-03-06T13:03:06.406Z,95881.02
2019-03-06T13:05:36.407Z,95881.02
2019-03-06T13:08:07.803Z,95881.88
2019-03-06T13:10:37.759Z,95867.09
2019-03-06T13:13:07.557Z,95870.87
2019-03-06T13:15:37.147Z,95875.48
2019-03-06T13:18:09.869Z,95875.48
2019-03-06T13:20:40.150Z,95874.67
2019-03-06T13:23:10.772Z,95880.42
2019-03-06T13:25:40.959Z,95860.30
2019-03-06T13:28:14.076Z,95882.21
2019-03-06T13:30:43.697Z,95850.69
2019-03-06T13:33:29.247Z,95850.32
2019-03-06T13:36:01.133Z,95848.22
2019-03-06T13:38:31.183Z,95842.95
2019-03-06T13:41:00.961Z,95845.40
2019-03-06T13:43:31.235Z,95845.40
2019-03-06T13:46:01.154Z,95839.84
2019-03-06T13:48:30.858Z,95839.84
2019-03-06T13:51:02.456Z,95836.60
2019-03-06T13:53:34.817Z,95819.30
2019-03-06T13:56:04.661Z,95821.66
2019-03-06T13:58:34.447Z,95821.16
2019-03-06T14:01:05.136Z,95823.02
2019-03-06T14:03:38.709Z,95823.02
2019-03-06T14:06:08.768Z,95815.40
2019-03-06T14:08:38.580Z,95815.40
2019-03-06T14:11:08.527Z,95808.77
2019-03-06T14:13:38.181Z,95802.01
2019-03-06T14:16:08.267Z,95802.01
2019-03-06T14:18:39.523Z,95790.76
2019-03-06T14:21:09.314Z,95800.19
2019-03-06T14:23:41.364Z,95811.23
2019-03-06T14:26:11.114Z,95810.41
2019-03-06T14:28:40.775Z,95810.41
2019-03-06T14:31:12.052Z,95826.72
2019-03-06T14:33:41.875Z,95818.16
2019-03-06T14:36:11.788Z,95818.16
2019-03-06T14:38:43.381Z,95803.05
2019-03-06T14:41:13.475Z,95806.80
2019-03-06T14:43:43.746Z,95806.80
2019-03-06T14:46:16.856Z,95826.33
2019-03-06T14:48:45.335Z,95826.33
2019-03-06T14:51:15.523Z,95834.73
2019-03-06T14:53:45.519Z,95834.73
2019-03-06T14:56:15.088Z,95806.73
2019-03-06T14:58:45.116Z,95816.58
2019-03-06T15:01:18.782Z,95816.58
2019-03-06T15:03:48.963Z,95805.66
2019-03-06T15:06:18.722Z,95796.20
2019-03-06T15:08:48.417Z,95791.81
2019-03-06T15:11:18.070Z,95776.38
2019-03-06T15:13:47.956Z,95776.38
2019-03-06T15:16:17.798Z,95773.91
2019-03-06T15:18:48.369Z,95761.92
2019-03-06T15:21:18.207Z,95761.52
2019-03-06T15:23:48.000Z,95768.93
2019-03-06T15:26:17.900Z,95769.17
2019-03-06T15:28:52.842Z,95769.17
2019-03-06T15:31:22.739Z,95760.02
2019-03-06T15:33:53.151Z,95760.02
2019-03-06T15:36:24.321Z,95770.06
2019-03-06T15:38:54.117Z,95748.14
2019-03-06T15:41:26.900Z,95748.14
2019-03-06T15:43:57.045Z,95753.75
2019-03-06T15:46:26.783Z,95755.77
2019-03-06T15:48:56.644Z,95748.78
2019-03-06T15:51:27.192Z,95751.50
2019-03-06T15:53:56.715Z,95742.47
2019-03-06T15:56:27.447Z,95734.69
2019-03-06T15:58:58.053Z,95734.69
2019-03-06T16:01:33.282Z,95730.17
2019-03-06T16:04:03.024Z,95728.03
2019-03-06T16:06:34.864Z,95728.03
2019-03-06T16:09:04.969Z,95725.52
2019-03-06T16:11:35.009Z,95723.88
2019-03-06T16:14:05.360Z,95723.07
2019-03-06T16:16:35.506Z,95714.91
2019-03-06T16:19:05.759Z,95714.91
2019-03-06T16:21:36.003Z,95709.08
2019-03-06T16:24:07.215Z,95710.42
2019-03-06T16:26:38.256Z,95705.58
2019-03-06T16:29:08.186Z,95705.58
2019-03-06T16:31:38.387Z,95703.75
2019-03-06T16:34:08.560Z,95703.59
2019-03-06T16:36:39.557Z,95700.59
2019-03-06T16:39:12.664Z,95700.59
2019-03-06T16:41:43.104Z,95698.27
2019-03-06T16:44:12.859Z,95693.94
2019-03-06T16:46:42.908Z,95693.94
2019-03-06T16:49:13.610Z,95699.23
2019-03-06T16:51:44.043Z,95699.23
2019-03-06T16:54:14.700Z,95696.92
2019-03-06T16:56:44.631Z,95699.09
2019-03-06T16:59:14.392Z,95692.08
2019-03-06T17:01:50.957Z,95692.08
2019-03-06T17:04:30.171Z,95689.94
2019-03-06T17:06:59.867Z,95682.39
2019-03-06T17:09:31.248Z,95687.39
2019-03-06T17:12:04.338Z,95680.39
2019-03-06T17:14:38.323Z,95684.55
2019-03-06T17:17:08.505Z,95677.86
2019-03-06T17:19:38.298Z,95679.05
2019-03-06T17:22:12.060Z,95683.56
2019-03-06T17:24:41.965Z,95683.88
2019-03-06T17:27:12.043Z,95683.88
2019-03-06T17:29:44.234Z,95673.03
2019-03-06T17:32:14.010Z,95681.88
2019-03-06T17:34:43.909Z,95681.88
2019-03-06T17:37:13.632Z,95686.72
2019-03-06T17:39:43.795Z,95683.54
2019-03-06T17:42:13.667Z,95683.04
2019-03-06T17:44:43.667Z,95680.37
2019-03-06T17:47:13.983Z,95680.37
2019-03-06T17:49:45.304Z,95684.55
2019-03-06T17:52:17.734Z,95689.89
2019-03-06T17:54:47.432Z,95690.73
2019-03-06T17:57:17.515Z,95683.22
2019-03-06T17:59:47.252Z,95678.06
2019-03-06T18:02:17.172Z,95677.04
2019-03-06T18:04:47.402Z,95677.04
2019-03-06T18:07:18.224Z,95672.69
2019-03-06T18:09:50.119Z,95669.68
2019-03-06T18:12:20.134Z,95669.68
2019-03-06T18:14:50.082Z,95671.36
2019-03-06T18:17:23.496Z,95679.87
2019-03-06T18:19:53.647Z,95681.54
2019-03-06T18:22:23.867Z,95673.00
2019-03-06T18:24:57.468Z,95662.84
2019-03-06T18:27:27.495Z,95662.84
2019-03-06T18:29:57.836Z,95660.02
2019-03-06T18:32:28.115Z,95664.70
2019-03-06T18:34:57.773Z,95664.70
2019-03-06T18:37:27.895Z,95659.16
2019-03-06T18:39:57.810Z,95658.80
2019-03-06T18:42:30.018Z,95652.68
2019-03-06T18:45:00.379Z,95652.68
2019-03-06T18:47:39.622Z,95653.66
2019-03-06T18:50:11.739Z,95653.66
2019-03-06T18:52:42.405Z,95654.70
2019-03-06T18:55:12.355Z,95654.70
2019-03-06T18:57:42.622Z,95650.84
2019-03-06T19:00:15.184Z,95642.49
2019-03-06T19:02:45.003Z,95636.14
2019-03-06T19:05:15.292Z,95634.78
2019-03-06T19:07:46.131Z,95632.44
2019-03-06T19:10:17.609Z,95629.30
2019-03-06T19:12:48.829Z,95630.16
2019-03-06T19:15:19.681Z,95623.98
2019-03-06T19:17:49.733Z,95627.15
2019-03-06T19:20:19.913Z,95613.63
2019-03-06T19:22:49.567Z,95610.45
2019-03-06T19:25:19.726Z,95610.30
2019-03-06T19:27:52.960Z,95605.77
2019-03-06T19:30:23.136Z,95606.75
2019-03-06T19:32:55.289Z,95598.77
2019-03-06T19:35:25.123Z,95596.95
2019-03-06T19:37:55.245Z,95590.42
2019-03-06T19:40:25.895Z,95592.92
2019-03-06T19:42:56.142Z,95584.07
2019-03-06T19:45:25.858Z,95584.07
2019-03-06T19:47:56.030Z,95577.09
2019-03-06T19:50:26.302Z,95574.75
2019-03-06T19:52:56.069Z,95574.89
2019-03-06T19:55:32.184Z,95566.57
2019-03-06T19:58:03.589Z,95562.90
2019-03-06T20:00:33.419Z,95562.90
2019-03-06T20:03:04.165Z,95562.73
2019-03-06T20:05:36.355Z,95564.56
2019-03-06T20:08:08.364Z,95558.73
2019-03-06T20:10:38.768Z,95550.74
2019-03-06T20:13:08.704Z,95545.73
2019-03-06T20:15:40.187Z,95550.22
2019-03-06T20:18:10.346Z,95551.88
2019-03-06T20:20:41.758Z,95555.59
2019-03-06T20:23:13.137Z,95551.72
2019-03-06T20:25:43.157Z,95547.71
2019-03-06T20:28:15.323Z,95553.58
2019-03-06T20:30:45.132Z,95559.25
2019-03-06T20:33:14.832Z,95559.23
2019-03-06T20:35:45.839Z,95562.27
2019-03-06T20:38:15.682Z,95555.09
2019-03-06T20:40:46.076Z,95553.75
2019-03-06T20:43:16.157Z,95553.75
2019-03-06T20:45:47.098Z,95547.08
2019-03-06T20:48:17.191Z,95547.08
2019-03-06T20:50:47.244Z,95542.73
2019-03-06T20:53:20.202Z,95547.23
2019-03-06T20:55:53.494Z,95546.23
2019-03-06T20:58:23.324Z,95546.23
2019-03-06T21:00:53.465Z,95543.70
2019-03-06T21:03:23.918Z,95543.70
2019-03-06T21:05:53.462Z,95548.71
2019-03-06T21:08:23.268Z,95537.53
2019-03-06T21:10:55.721Z,95536.05
2019-03-06T21:13:25.471Z,95532.19
2019-03-06T21:15:55.716Z,95532.89
2019-03-06T21:18:30.146Z,95532.89
2019-03-06T21:21:03.305Z,95531.72
2019-03-06T21:23:38.164Z,95531.72
2019-03-06T21:26:08.144Z,95529.72
2019-03-06T21:28:37.898Z,95523.00
2019-03-06T21:31:08.151Z,95518.53
2019-03-06T21:33:39.381Z,95518.53
2019-03-06T21:36:09.663Z,95509.16
2019-03-06T21:38:39.235Z,95502.27
2019-03-06T21:41:09.669Z,95502.27
2019-03-06T21:43:39.567Z,95495.00
2019-03-06T21:46:09.535Z,95495.00
2019-03-06T21:48:39.245Z,95503.34
2019-03-06T21:51:09.314Z,95499.00
2019-03-06T21:53:39.292Z,95500.17
2019-03-06T21:56:11.621Z,95491.49
2019-03-06T21:58:41.562Z,95498.17
2019-03-06T22:01:11.293Z,95499.50
2019-03-06T22:06:17.811Z,95496.13
2019-03-06T22:08:48.706Z,95503.13
2019-03-06T22:11:19.451Z,95498.46
2019-03-06T22:13:49.343Z,95498.46
2019-03-06T22:16:19.787Z,95492.91
2019-03-06T22:18:49.693Z,95491.13
2019-03-06T22:21:19.537Z,95497.63
2019-03-06T22:23:49.363Z,95490.66
2019-03-06T22:26:19.310Z,95488.19
2019-03-06T22:28:49.658Z,95486.86
2019-03-06T22:31:19.661Z,95487.86
2019-03-06T22:33:49.349Z,95482.69
2019-03-06T22:36:19.038Z,95471.34
2019-03-06T22:38:55.101Z,95467.66
2019-03-06T22:41:27.096Z,95467.66
2019-03-06T22:43:57.078Z,95466.66
2019-03-06T22:46:26.809Z,95462.86
2019-03-06T22:48:57.035Z,95449.81
2019-03-06T22:51:27.450Z,95449.81
2019-03-06T22:53:57.350Z,95452.69
2019-03-06T22:56:27.667Z,95449.84
2019-03-06T22:58:57.645Z,95436.00
2019-03-06T23:01:38.445Z,95436.46
2019-03-06T23:04:09.969Z,95436.46
2019-03-06T23:06:40.090Z,95431.50
2019-03-06T23:09:12.051Z,95420.78
2019-03-06T23:11:42.067Z,95412.14
2019-03-06T23:14:12.054Z,95412.14
2019-03-06T23:16:41.885Z,95411.30
2019-03-06T23:19:11.736Z,95395.13
2019-03-06T23:21:41.537Z,95395.13
2019-03-06T23:24:12.060Z,95385.81
2019-03-06T23:26:43.105Z,95375.09
2019-03-06T23:29:13.437Z,95375.09
2019-03-06T23:31:43.568Z,95375.09
2019-03-06T23:34:13.649Z,95368.77
2019-03-06T23:36:43.331Z,95362.70
2019-03-06T23:39:16.795Z,95365.92
2019-03-06T23:41:46.724Z,95366.92
2019-03-06T23:44:16.579Z,95366.92
2019-03-06T23:46:46.576Z,95365.76
2019-03-06T23:49:16.201Z,95360.03
2019-03-06T23:52:04.656Z,95358.36
2019-03-06T23:54:34.520Z,95348.86
2019-03-06T23:57:04.138Z,95343.00
2019-03-06T23:59:34.044Z,95333.51
